Time;durP1;ratioP1;P1;durP2;ratioP2;P2;SDS_P1;SDS_P2;PMS_P1;PMS_P2;Temp;Humidity;BMP_temperature;BMP_pressure;BME280_temperature;BME280_humidity;BME280_pressure;Samples;Min_cycle;Max_cycle;Signal;HPM_P1;HPM_P2
2022/06/26 00:01:21;;;;;;;2.78;2.58;;;16.70;99.90;;;;;;4979826;28;20030;-87
2022/06/26 00:03:47;;;;;;;2.90;2.58;;;16.70;99.90;;;;;;4988199;28;20030;-88
2022/06/26 00:06:13;;;;;;;4.50;2.67;;;16.70;99.90;;;;;;4982977;28;20030;-88
2022/06/26 00:08:38;;;;;;;3.92;3.20;;;16.70;99.90;;;;;;4993493;28;20124;-88
2022/06/26 00:11:04;;;;;;;3.00;2.70;;;16.70;99.90;;;;;;4993076;28;20603;-87
2022/06/26 00:13:30;;;;;;;3.05;2.83;;;16.60;99.90;;;;;;4993787;28;20041;-87
2022/06/26 00:15:56;;;;;;;2.80;2.60;;;16.70;99.90;;;;;;4991527;28;20499;-87
2022/06/26 00:18:22;;;;;;;3.05;2.80;;;16.70;99.90;;;;;;4963249;28;20049;-88
2022/06/26 00:20:48;;;;;;;3.28;2.97;;;16.70;99.90;;;;;;4974902;28;20022;-88
2022/06/26 00:23:14;;;;;;;3.35;3.05;;;16.70;99.90;;;;;;4978953;28;20034;-87
2022/06/26 00:25:40;;;;;;;3.47;3.17;;;16.60;99.90;;;;;;4978044;28;20438;-88
2022/06/26 00:28:06;;;;;;;3.35;2.88;;;16.60;99.90;;;;;;4993955;28;20065;-89
2022/06/26 00:30:31;;;;;;;3.33;3.10;;;16.60;99.90;;;;;;4990807;28;20721;-87
2022/06/26 00:32:57;;;;;;;3.90;3.30;;;16.60;99.90;;;;;;5009790;28;20045;-88
2022/06/26 00:35:23;;;;;;;3.22;2.90;;;16.60;99.90;;;;;;4985398;28;20122;-87
2022/06/26 00:37:49;;;;;;;3.10;2.80;;;16.70;99.90;;;;;;4994126;28;20037;-87
2022/06/26 00:40:15;;;;;;;2.92;2.70;;;16.70;99.90;;;;;;4972082;28;20039;-87
2022/06/26 00:42:42;;;;;;;2.80;2.60;;;16.60;99.90;;;;;;4986687;28;20069;-87
2022/06/26 00:45:09;;;;;;;2.75;2.55;;;16.60;99.90;;;;;;4955301;28;20058;-87
2022/06/26 00:47:35;;;;;;;3.63;2.65;;;16.60;99.90;;;;;;4980768;28;20089;-87
2022/06/26 00:50:01;;;;;;;3.45;3.15;;;16.60;99.90;;;;;;4964567;28;20397;-86
2022/06/26 00:52:27;;;;;;;3.25;3.05;;;16.50;99.90;;;;;;4983158;28;20038;-88
2022/06/26 00:54:54;;;;;;;3.42;3.08;;;16.40;99.90;;;;;;4973321;28;20030;-87
2022/06/26 00:57:21;;;;;;;3.40;3.05;;;16.30;99.90;;;;;;4980153;28;20117;-87
2022/06/26 00:59:48;;;;;;;3.72;3.42;;;16.30;99.90;;;;;;4975086;28;20400;-87
2022/06/26 01:02:14;;;;;;;3.35;3.05;;;16.30;99.90;;;;;;4977488;28;20030;-88
2022/06/26 01:04:40;;;;;;;3.88;3.47;;;16.20;99.90;;;;;;4977230;28;20030;-86
2022/06/26 01:07:06;;;;;;;3.85;3.50;;;16.20;99.90;;;;;;4977204;28;20038;-86
2022/06/26 01:09:33;;;;;;;3.50;3.20;;;16.20;99.90;;;;;;4979669;28;20066;-87
2022/06/26 01:12:00;;;;;;;4.90;3.28;;;16.20;99.90;;;;;;4993730;28;20038;-87
2022/06/26 01:14:26;;;;;;;2.88;2.63;;;16.10;99.90;;;;;;4996647;28;20033;-89
2022/06/26 01:16:52;;;;;;;3.63;2.95;;;16.10;99.90;;;;;;4988422;28;20080;-87
2022/06/26 01:19:20;;;;;;;2.72;2.53;;;16.20;99.90;;;;;;4964553;28;20137;-88
2022/06/26 01:21:46;;;;;;;2.20;2.10;;;16.10;99.90;;;;;;4999802;28;20121;-88
2022/06/26 01:24:13;;;;;;;2.65;2.42;;;16.10;99.90;;;;;;4978578;28;20037;-88
2022/06/26 01:26:41;;;;;;;3.13;2.40;;;16.10;99.90;;;;;;4993649;28;20046;-87
2022/06/26 01:29:07;;;;;;;3.38;3.08;;;16.10;99.90;;;;;;4976446;28;20036;-88
2022/06/26 01:31:34;;;;;;;2.90;2.53;;;16.00;99.90;;;;;;4973991;28;20034;-88
2022/06/26 01:34:04;;;;;;;2.70;2.50;;;16.00;99.90;;;;;;4957486;28;20039;-89
2022/06/26 01:36:31;;;;;;;3.17;2.88;;;16.00;99.90;;;;;;4968401;28;20034;-87
2022/06/26 01:38:58;;;;;;;3.08;2.65;;;15.90;99.90;;;;;;4982283;28;20035;-86
2022/06/26 01:41:25;;;;;;;3.30;3.00;;;15.90;99.90;;;;;;4977639;28;20026;-86
2022/06/26 01:43:51;;;;;;;3.40;3.10;;;15.80;99.90;;;;;;4982744;28;20064;-86
2022/06/26 01:46:18;;;;;;;2.85;2.60;;;15.70;99.90;;;;;;4988503;28;20053;-87
2022/06/26 01:48:44;;;;;;;3.60;2.78;;;15.70;99.90;;;;;;4992434;28;20041;-86
2022/06/26 01:51:12;;;;;;;3.70;3.40;;;15.60;99.90;;;;;;4999482;28;20034;-87
2022/06/26 01:53:41;;;;;;;4.15;3.55;;;15.60;99.90;;;;;;4973017;28;20031;-87
2022/06/26 01:56:08;;;;;;;3.60;3.30;;;15.60;99.90;;;;;;4984803;28;20120;-87
2022/06/26 01:58:38;;;;;;;4.05;3.75;;;15.60;99.90;;;;;;4989669;28;20378;-88
2022/06/26 11:57:55;;;;;;;2.05;1.10;;;28.40;58.50;;;;;;5088148;28;20201;-79
2022/06/26 12:00:22;;;;;;;1.85;1.05;;;28.60;59.20;;;;;;5044187;28;20037;-79
2022/06/26 12:02:50;;;;;;;2.00;0.90;;;28.80;56.70;;;;;;5068307;28;20174;-80
2022/06/26 12:05:21;;;;;;;0.90;0.90;;;29.10;54.50;;;;;;5044404;28;20025;-79
2022/06/26 12:07:48;;;;;;;2.75;1.35;;;29.00;53.10;;;;;;5022257;28;20058;-79
2022/06/26 12:10:53;;;;;;;3.08;1.42;;;29.10;54.60;;;;;;5065452;28;20383;-80
2022/06/26 12:13:29;;;;;;;1.30;0.95;;;29.20;55.00;;;;;;5059417;28;20513;-80
2022/06/26 12:16:08;;;;;;;2.28;1.63;;;29.20;53.40;;;;;;5064991;28;20510;-79
2022/06/26 12:18:38;;;;;;;1.02;1.00;;;29.00;54.10;;;;;;5063839;28;20025;-79
2022/06/26 12:21:18;;;;;;;1.13;0.90;;;29.10;56.30;;;;;;5069814;28;20020;-80
2022/06/26 12:23:46;;;;;;;1.40;1.02;;;29.40;56.10;;;;;;5064136;28;20028;-80
2022/06/26 12:26:17;;;;;;;0.80;0.80;;;29.70;55.00;;;;;;5047200;28;20117;-80
2022/06/26 12:28:48;;;;;;;1.45;1.02;;;30.10;53.20;;;;;;5073609;28;20032;-80
2022/06/26 12:31:15;;;;;;;1.10;0.80;;;30.30;50.60;;;;;;5053022;28;20098;-81
2022/06/26 12:33:41;;;;;;;1.02;0.75;;;30.30;50.00;;;;;;5053605;28;20047;-80
2022/06/26 12:36:08;;;;;;;1.70;1.48;;;30.40;49.40;;;;;;5059869;28;20032;-80
2022/06/26 12:38:35;;;;;;;0.90;0.75;;;30.50;50.40;;;;;;5069648;28;20471;-80
2022/06/26 12:41:03;;;;;;;0.80;0.80;;;30.60;51.30;;;;;;5048600;28;20036;-81
2022/06/26 12:43:29;;;;;;;1.38;1.00;;;30.80;48.80;;;;;;5074908;28;20027;-80
2022/06/26 12:45:55;;;;;;;4.57;2.33;;;30.90;48.50;;;;;;5066345;28;20107;-79
2022/06/26 12:48:21;;;;;;;0.80;0.80;;;31.00;49.50;;;;;;5041380;28;20125;-80
2022/06/26 12:50:47;;;;;;;0.70;0.70;;;31.30;53.50;;;;;;5064065;28;20033;-80
2022/06/26 12:53:13;;;;;;;2.58;0.80;;;31.70;54.00;;;;;;5056285;28;20032;-79
2022/06/26 12:55:39;;;;;;;0.75;0.75;;;31.90;49.20;;;;;;5069477;28;20089;-79
2022/06/26 12:58:05;;;;;;;0.70;0.70;;;32.00;48.80;;;;;;5064132;28;20452;-80
2022/06/26 13:00:31;;;;;;;0.77;0.77;;;31.90;47.40;;;;;;5066503;28;20306;-79
2022/06/26 13:02:56;;;;;;;0.70;0.70;;;32.00;46.90;;;;;;5066196;28;20029;-80
2022/06/26 13:05:22;;;;;;;0.90;0.90;;;32.10;47.40;;;;;;5070377;28;20033;-81
2022/06/26 13:07:48;;;;;;;0.75;0.70;;;32.10;48.20;;;;;;5074362;28;20636;-80
2022/06/26 13:10:14;;;;;;;0.95;0.75;;;32.10;46.50;;;;;;5040146;28;20044;-80
2022/06/26 13:12:40;;;;;;;1.70;0.90;;;32.10;49.10;;;;;;5063467;28;20025;-79
2022/06/26 13:15:06;;;;;;;1.25;0.80;;;31.80;46.40;;;;;;5069196;28;20033;-79
2022/06/26 13:17:32;;;;;;;0.80;0.80;;;31.70;47.20;;;;;;5035412;28;20029;-79
2022/06/26 13:19:59;;;;;;;0.82;0.82;;;31.60;47.10;;;;;;5047747;28;20044;-80
2022/06/26 13:22:25;;;;;;;0.82;0.82;;;31.70;48.90;;;;;;5063312;28;20028;-80
2022/06/26 13:24:50;;;;;;;0.60;0.60;;;31.60;46.60;;;;;;5053231;28;20120;-80
2022/06/26 13:27:16;;;;;;;0.90;0.90;;;31.60;47.20;;;;;;5062361;28;20064;-79
2022/06/26 13:29:42;;;;;;;0.70;0.70;;;31.40;46.50;;;;;;5049371;28;20083;-79
2022/06/26 13:32:08;;;;;;;0.93;0.80;;;31.20;46.90;;;;;;5036022;28;20057;-80
2022/06/26 13:34:34;;;;;;;0.60;0.60;;;31.00;49.60;;;;;;5054481;28;20104;-80
2022/06/26 13:37:00;;;;;;;1.45;0.75;;;30.90;51.60;;;;;;5053075;28;20059;-79
2022/06/26 13:39:26;;;;;;;0.60;0.60;;;31.10;52.20;;;;;;5030051;28;20638;-81
2022/06/26 13:41:52;;;;;;;0.60;0.60;;;31.40;52.40;;;;;;5053702;28;20530;-80
2022/06/26 13:44:19;;;;;;;0.77;0.70;;;31.30;50.10;;;;;;5052800;28;20064;-80
2022/06/26 13:46:45;;;;;;;0.80;0.80;;;31.20;48.30;;;;;;5046532;28;20037;-81
2022/06/26 13:49:11;;;;;;;2.60;0.85;;;31.00;49.10;;;;;;5053206;28;20033;-81
2022/06/26 13:51:38;;;;;;;0.90;0.90;;;30.80;48.80;;;;;;5052409;28;20438;-80
2022/06/26 13:54:04;;;;;;;1.25;0.70;;;30.30;49.40;;;;;;5057152;28;20079;-79
2022/06/26 13:56:30;;;;;;;0.82;0.82;;;30.10;48.20;;;;;;5049122;28;20037;-79
2022/06/26 13:58:56;;;;;;;0.73;0.73;;;30.10;48.50;;;;;;5035087;28;20124;-80
2022/06/26 14:01:23;;;;;;;0.98;0.80;;;30.10;49.20;;;;;;5034446;28;20124;-81
2022/06/26 14:03:49;;;;;;;1.20;0.70;;;30.20;49.10;;;;;;5043565;28;20037;-81
2022/06/26 14:06:15;;;;;;;0.80;0.80;;;30.30;50.20;;;;;;5053015;28;20035;-81
2022/06/26 14:08:41;;;;;;;0.80;0.80;;;30.40;49.80;;;;;;5059112;28;20057;-82
2022/06/26 14:11:07;;;;;;;0.70;0.70;;;30.40;51.30;;;;;;5038928;28;20057;-81
2022/06/26 14:13:33;;;;;;;1.08;0.98;;;30.40;48.50;;;;;;5050937;28;20207;-79
2022/06/26 14:15:59;;;;;;;0.88;0.85;;;30.30;49.50;;;;;;5052937;28;20032;-81
2022/06/26 14:18:25;;;;;;;1.13;0.90;;;30.20;49.20;;;;;;5059175;28;20479;-80
2022/06/26 14:20:51;;;;;;;0.68;0.68;;;29.90;48.80;;;;;;5053865;28;20124;-80
2022/06/26 14:26:03;;;;;;;0.70;0.70;;;29.60;49.40;;;;;;5049734;28;20044;-79
2022/06/26 14:28:32;;;;;;;0.90;0.90;;;29.50;50.10;;;;;;5035097;28;20036;-79
2022/06/26 14:30:59;;;;;;;0.80;0.80;;;29.40;49.20;;;;;;5046868;28;20037;-79
2022/06/26 14:33:26;;;;;;;0.85;0.85;;;29.40;48.40;;;;;;5049230;28;20086;-78
2022/06/26 14:35:52;;;;;;;0.82;0.77;;;29.30;48.20;;;;;;5051216;28;20041;-79
2022/06/26 14:38:18;;;;;;;0.73;0.70;;;29.20;49.60;;;;;;5058163;28;20049;-80
2022/06/26 14:40:45;;;;;;;1.83;0.98;;;29.10;49.70;;;;;;5061976;28;20379;-80
2022/06/26 14:43:12;;;;;;;1.15;1.08;;;29.20;50.80;;;;;;5061833;22;20044;-84
2022/06/26 14:45:38;;;;;;;1.10;1.10;;;29.00;50.50;;;;;;5052010;28;20462;-85
2022/06/26 14:48:05;;;;;;;1.02;1.00;;;29.10;49.70;;;;;;5062966;28;20037;-83
2022/06/26 14:50:30;;;;;;;1.17;0.93;;;28.90;49.30;;;;;;5062019;28;20517;-83
2022/06/26 14:52:56;;;;;;;2.05;1.27;;;28.90;51.40;;;;;;5028898;28;20056;-82
2022/06/26 14:55:22;;;;;;;2.70;1.40;;;28.90;52.90;;;;;;5038713;28;20024;-84
2022/06/26 14:57:48;;;;;;;1.30;1.20;;;28.90;51.70;;;;;;5055035;28;20336;-83
2022/06/26 15:00:15;;;;;;;1.08;0.98;;;28.80;51.40;;;;;;5036170;28;20036;-82
2022/06/26 15:02:41;;;;;;;0.80;0.80;;;28.80;52.10;;;;;;5031677;28;20048;-82
2022/06/26 15:05:07;;;;;;;0.75;0.75;;;28.80;52.70;;;;;;5085839;28;20020;-82
2022/06/26 15:07:33;;;;;;;1.65;0.80;;;28.80;52.70;;;;;;5075785;28;20032;-83
2022/06/26 15:09:59;;;;;;;1.08;0.98;;;28.90;51.80;;;;;;5042862;28;20089;-85
2022/06/26 15:12:25;;;;;;;1.17;1.08;;;28.90;50.50;;;;;;5065571;28;20024;-83
2022/06/26 15:14:51;;;;;;;1.25;0.88;;;28.90;49.90;;;;;;5056080;28;20055;-83
2022/06/26 15:17:17;;;;;;;1.67;0.80;;;28.90;51.10;;;;;;5057204;28;20070;-81
2022/06/26 15:19:43;;;;;;;0.70;0.70;;;28.80;50.70;;;;;;5053810;28;20080;-82
2022/06/26 15:22:09;;;;;;;0.95;0.80;;;28.80;49.90;;;;;;5050685;28;20044;-81
2022/06/26 15:24:35;;;;;;;0.73;0.70;;;28.90;52.10;;;;;;5055752;28;20518;-82
2022/06/26 15:27:01;;;;;;;1.30;0.75;;;28.90;52.60;;;;;;5083686;28;20056;-82
2022/06/26 15:29:27;;;;;;;0.85;0.85;;;28.90;53.40;;;;;;5062091;28;20430;-83
2022/06/26 15:31:53;;;;;;;1.00;0.82;;;29.00;54.30;;;;;;5057659;28;20040;-85
2022/06/26 15:34:19;;;;;;;1.40;0.70;;;29.10;53.40;;;;;;5034437;28;20052;-85
2022/06/26 15:36:45;;;;;;;0.68;0.68;;;29.20;51.90;;;;;;5036566;28;20037;-85
2022/06/26 15:39:10;;;;;;;1.20;0.70;;;29.20;50.40;;;;;;5025280;28;20036;-84
2022/06/26 15:41:36;;;;;;;2.30;1.02;;;29.20;50.90;;;;;;5061844;28;20040;-84
2022/06/26 15:44:02;;;;;;;0.68;0.68;;;29.10;49.80;;;;;;5052846;28;20048;-82
2022/06/26 15:46:28;;;;;;;0.77;0.77;;;29.00;51.20;;;;;;5062910;28;20028;-83
2022/06/26 15:48:54;;;;;;;0.90;0.90;;;29.00;50.50;;;;;;5052657;28;20562;-83
2022/06/26 15:51:23;;;;;;;0.85;0.85;;;29.00;50.60;;;;;;5051828;28;20036;-83
2022/06/26 15:53:50;;;;;;;0.90;0.88;;;29.10;51.20;;;;;;5057038;28;20067;-83
2022/06/26 15:56:16;;;;;;;0.95;0.90;;;29.10;50.70;;;;;;5049484;28;20116;-83
2022/06/26 15:58:43;;;;;;;1.30;1.08;;;29.20;51.40;;;;;;5046593;28;20122;-83
2022/06/26 16:01:09;;;;;;;0.93;0.90;;;29.10;50.70;;;;;;5071290;28;20036;-82
2022/06/26 16:03:35;;;;;;;0.80;0.70;;;29.20;52.00;;;;;;5023947;28;20429;-83
2022/06/26 16:06:01;;;;;;;0.90;0.90;;;29.10;51.50;;;;;;5034382;28;20040;-83
2022/06/26 16:08:27;;;;;;;1.13;1.05;;;29.00;51.90;;;;;;5063853;28;20032;-84
2022/06/26 16:10:53;;;;;;;1.27;1.17;;;29.10;52.40;;;;;;5087123;28;20126;-84
2022/06/26 16:13:18;;;;;;;1.10;1.00;;;29.10;50.70;;;;;;5067985;28;20052;-84
2022/06/26 16:15:44;;;;;;;1.10;1.10;;;29.20;50.40;;;;;;5069097;28;20040;-83
2022/06/26 16:18:10;;;;;;;1.40;1.10;;;29.30;50.40;;;;;;5078540;28;20029;-85
2022/06/26 16:20:36;;;;;;;0.95;0.90;;;29.30;49.80;;;;;;5063911;28;20130;-86
2022/06/26 16:28:31;;;;;;;1.00;1.00;;;29.10;48.70;;;;;;5069862;28;20058;-83
2022/06/26 16:30:57;;;;;;;1.23;1.13;;;29.00;48.80;;;;;;5067779;28;20107;-83
2022/06/26 16:33:22;;;;;;;1.10;1.10;;;28.90;50.20;;;;;;5062639;28;20037;-84
2022/06/26 16:35:48;;;;;;;0.95;0.95;;;28.90;50.50;;;;;;5042195;28;20021;-83
2022/06/26 16:38:14;;;;;;;1.30;0.73;;;28.80;50.70;;;;;;5031057;28;20374;-83
2022/06/26 16:40:40;;;;;;;0.90;0.90;;;28.80;50.70;;;;;;5083390;28;20056;-84
2022/06/26 16:43:06;;;;;;;0.82;0.80;;;28.80;50.00;;;;;;5064498;28;20119;-84
2022/06/26 16:45:31;;;;;;;1.05;0.95;;;28.80;49.90;;;;;;5055099;28;20036;-83
2022/06/26 16:47:57;;;;;;;0.80;0.80;;;28.70;50.90;;;;;;5056559;28;20037;-84
2022/06/26 16:50:23;;;;;;;1.65;1.17;;;28.70;51.10;;;;;;5069274;28;20103;-84
2022/06/26 16:52:49;;;;;;;1.35;1.25;;;28.70;50.40;;;;;;5057538;28;20076;-83
2022/06/26 16:55:15;;;;;;;2.55;1.20;;;28.60;50.80;;;;;;5056782;28;20077;-83
2022/06/26 16:57:42;;;;;;;1.00;1.00;;;28.50;50.20;;;;;;5074188;28;20036;-83
2022/06/26 17:00:09;;;;;;;1.00;0.88;;;28.50;50.60;;;;;;5061444;28;20041;-83
2022/06/26 17:02:35;;;;;;;1.08;0.98;;;28.40;51.50;;;;;;5062840;28;20024;-83
2022/06/26 17:05:02;;;;;;;1.00;1.00;;;28.30;50.10;;;;;;5056080;28;20143;-84
2022/06/26 17:07:28;;;;;;;2.28;0.90;;;28.30;51.10;;;;;;5064752;28;20062;-83
2022/06/26 17:09:54;;;;;;;1.05;1.05;;;28.30;50.50;;;;;;5064185;28;20020;-84
2022/06/26 17:12:20;;;;;;;0.95;0.93;;;28.40;50.50;;;;;;5088933;28;20028;-83
2022/06/26 17:14:48;;;;;;;1.00;1.00;;;28.40;51.10;;;;;;5064028;28;20044;-83
2022/06/26 17:17:14;;;;;;;1.00;1.00;;;28.40;50.70;;;;;;5062195;28;20517;-83
2022/06/26 17:19:39;;;;;;;0.70;0.70;;;28.30;50.90;;;;;;5067220;28;20036;-83
2022/06/26 17:22:05;;;;;;;2.38;1.38;;;28.30;51.10;;;;;;5054405;28;20039;-84
2022/06/26 17:24:31;;;;;;;2.58;2.38;;;28.30;52.50;;;;;;5080298;28;20033;-84
2022/06/26 17:26:57;;;;;;;1.48;1.38;;;28.30;51.30;;;;;;5064559;28;20033;-84
2022/06/26 17:29:23;;;;;;;1.00;0.90;;;28.20;51.10;;;;;;5060686;28;20433;-83
2022/06/26 17:31:49;;;;;;;1.70;0.95;;;28.20;52.00;;;;;;5061756;28;20072;-84
2022/06/26 17:34:15;;;;;;;0.77;0.77;;;28.20;52.70;;;;;;5057094;28;20039;-84
2022/06/26 17:36:41;;;;;;;1.27;0.80;;;28.10;51.00;;;;;;5056715;28;20040;-84
2022/06/26 17:39:07;;;;;;;0.60;0.60;;;28.00;52.10;;;;;;5063211;28;20514;-83
2022/06/26 17:41:34;;;;;;;0.90;0.90;;;28.00;51.70;;;;;;5051206;28;20114;-84
2022/06/26 17:44:00;;;;;;;1.60;1.05;;;28.00;51.30;;;;;;5065637;28;20036;-83
2022/06/26 17:46:29;;;;;;;1.80;1.00;;;28.00;52.10;;;;;;5057345;28;20032;-84
2022/06/26 17:48:56;;;;;;;1.20;1.10;;;28.00;52.30;;;;;;5087776;28;20540;-84
2022/06/26 17:51:22;;;;;;;0.80;0.80;;;28.00;51.80;;;;;;5056409;28;20128;-84
2022/06/26 17:53:48;;;;;;;2.22;0.80;;;28.00;52.60;;;;;;5040837;28;20501;-83
2022/06/26 17:56:15;;;;;;;3.35;1.90;;;27.90;53.50;;;;;;5058274;28;20043;-83
2022/06/26 17:58:41;;;;;;;1.10;1.00;;;27.80;54.30;;;;;;5066415;28;20089;-83
2022/06/26 18:01:10;;;;;;;3.22;2.72;;;27.70;55.40;;;;;;5045016;28;20029;-83
2022/06/26 18:03:38;;;;;;;1.83;1.73;;;27.60;55.70;;;;;;5054903;28;20028;-83
2022/06/26 18:06:07;;;;;;;1.10;1.10;;;27.50;56.40;;;;;;5055127;28;20067;-83
2022/06/26 18:08:34;;;;;;;0.88;0.88;;;27.40;57.10;;;;;;5022852;28;20071;-83
2022/06/26 18:11:00;;;;;;;1.00;1.00;;;27.30;57.10;;;;;;5051283;28;20052;-83
2022/06/26 18:13:26;;;;;;;1.85;1.20;;;27.20;57.10;;;;;;5052789;28;20060;-83
2022/06/26 18:15:52;;;;;;;1.67;0.88;;;27.10;57.00;;;;;;5030239;28;20033;-84
2022/06/26 18:18:18;;;;;;;1.00;1.00;;;27.00;56.90;;;;;;5052651;28;20902;-82
2022/06/26 18:20:44;;;;;;;0.90;0.90;;;26.90;56.70;;;;;;5064003;28;20502;-83
2022/06/26 18:23:11;;;;;;;1.02;0.90;;;26.80;56.80;;;;;;5081195;28;20398;-83
2022/06/26 18:25:38;;;;;;;1.00;1.00;;;26.70;57.00;;;;;;5061871;28;20032;-84
2022/06/26 18:28:05;;;;;;;0.77;0.70;;;26.60;57.40;;;;;;5045901;28;20040;-83
2022/06/26 18:30:31;;;;;;;0.95;0.90;;;26.60;58.10;;;;;;5083297;28;20078;-83
2022/06/26 18:32:58;;;;;;;1.83;0.88;;;26.50;58.20;;;;;;5056960;28;20632;-83
2022/06/26 18:35:25;;;;;;;1.52;1.10;;;26.50;59.10;;;;;;5070244;28;20393;-82
2022/06/26 18:37:51;;;;;;;1.85;1.27;;;26.50;58.40;;;;;;5062767;28;20128;-83
2022/06/26 18:40:19;;;;;;;1.50;1.40;;;26.50;58.80;;;;;;5071428;28;20406;-84
2022/06/26 18:42:47;;;;;;;8.70;6.65;;;26.40;59.00;;;;;;5061893;28;20173;-84
2022/06/26 18:45:13;;;;;;;2.60;2.40;;;26.40;59.30;;;;;;5029637;28;20490;-83
2022/06/26 18:47:41;;;;;;;1.23;1.17;;;26.30;59.70;;;;;;5054677;28;20017;-84
2022/06/26 18:50:08;;;;;;;1.50;1.15;;;26.30;59.80;;;;;;5066690;28;20514;-84
2022/06/26 18:52:33;;;;;;;1.88;1.05;;;26.30;60.20;;;;;;5075614;28;20658;-83
2022/06/26 18:54:59;;;;;;;1.98;1.88;;;26.20;60.80;;;;;;5066218;28;20021;-85
2022/06/26 18:57:25;;;;;;;1.00;1.00;;;26.10;61.20;;;;;;5066208;28;20028;-85
2022/06/26 18:59:51;;;;;;;1.25;1.15;;;26.10;61.60;;;;;;5085801;28;20501;-85
2022/06/26 19:02:24;;;;;;;1.10;1.10;;;26.00;61.70;;;;;;5063621;28;20043;-85
2022/06/26 19:04:51;;;;;;;1.50;1.30;;;25.90;61.90;;;;;;5092103;28;20036;-85
2022/06/26 19:07:17;;;;;;;1.40;1.30;;;25.80;62.50;;;;;;5051188;28;20028;-85
2022/06/26 19:09:44;;;;;;;1.48;1.38;;;25.80;62.60;;;;;;5057409;28;20029;-84
2022/06/26 19:14:56;;;;;;;48.45;29.88;;;25.60;63.50;;;;;;5068505;28;20089;-85
2022/06/26 19:17:23;;;;;;;30.50;21.65;;;25.50;64.00;;;;;;5068232;28;20481;-86
2022/06/26 19:19:51;;;;;;;18.95;16.02;;;25.40;64.50;;;;;;5083164;28;20532;-85
2022/06/26 19:22:19;;;;;;;3.60;3.30;;;25.30;65.00;;;;;;5066607;28;20409;-86
2022/06/26 19:24:45;;;;;;;2.85;2.65;;;25.20;65.30;;;;;;5076458;28;20040;-85
2022/06/26 19:27:12;;;;;;;2.08;1.98;;;25.10;65.50;;;;;;5053466;28;20119;-85
2022/06/26 19:29:38;;;;;;;2.33;2.13;;;25.00;66.00;;;;;;5053576;28;20028;-85
2022/06/26 19:32:06;;;;;;;1.20;1.20;;;25.00;66.80;;;;;;5068386;28;20315;-85
2022/06/26 19:34:32;;;;;;;1.40;1.30;;;24.80;66.10;;;;;;5045544;28;20116;-85
2022/06/26 19:36:58;;;;;;;1.30;1.20;;;24.70;65.70;;;;;;5071808;28;20028;-85
2022/06/26 19:39:25;;;;;;;1.30;1.20;;;24.60;65.50;;;;;;5057542;28;20068;-86
2022/06/26 19:42:18;;;;;;;1.05;1.05;;;24.50;66.60;;;;;;5058820;28;20045;-85
2022/06/26 19:44:37;;;;;;;1.23;1.15;;;24.40;66.80;;;;;;5070738;28;20040;-86
2022/06/26 19:47:03;;;;;;;1.27;1.23;;;24.20;66.80;;;;;;5047323;28;20553;-85
2022/06/26 19:52:13;;;;;;;1.58;1.35;;;24.10;67.60;;;;;;5047122;28;20479;-84
2022/06/26 19:54:39;;;;;;;1.15;1.15;;;24.00;68.30;;;;;;5035378;28;20028;-83
2022/06/26 19:57:05;;;;;;;2.03;1.40;;;23.80;68.50;;;;;;5057260;28;20119;-84
2022/06/26 19:59:30;;;;;;;1.17;1.10;;;23.80;68.60;;;;;;5034962;28;20080;-84
2022/06/26 20:01:56;;;;;;;1.25;1.15;;;23.70;69.20;;;;;;5056844;28;20127;-85
2022/06/26 20:04:23;;;;;;;1.50;1.40;;;23.60;69.80;;;;;;5062667;28;20028;-84
2022/06/26 20:06:49;;;;;;;1.30;1.20;;;23.50;70.00;;;;;;5057247;28;20033;-85
2022/06/26 20:09:15;;;;;;;2.08;1.30;;;23.40;70.20;;;;;;5049144;28;20450;-85
2022/06/26 20:11:41;;;;;;;1.30;1.20;;;23.30;70.60;;;;;;5057606;28;20425;-84
2022/06/26 20:14:07;;;;;;;2.17;1.25;;;23.20;70.50;;;;;;5062325;28;20544;-84
2022/06/26 20:16:33;;;;;;;1.30;1.20;;;23.20;70.90;;;;;;5076194;28;20059;-84
2022/06/26 20:18:59;;;;;;;1.63;1.48;;;23.10;71.70;;;;;;5064849;28;20105;-85
2022/06/26 20:21:25;;;;;;;2.47;1.60;;;23.00;72.30;;;;;;5058598;28;20494;-86
2022/06/26 20:23:51;;;;;;;1.40;1.30;;;23.00;73.00;;;;;;5090439;28;20065;-85
2022/06/26 20:26:16;;;;;;;1.80;1.30;;;23.00;73.40;;;;;;5058318;28;20033;-85
2022/06/26 20:28:42;;;;;;;1.20;1.20;;;22.90;74.10;;;;;;5082881;28;20525;-83
2022/06/26 20:31:08;;;;;;;1.70;1.60;;;22.80;73.90;;;;;;5042353;28;20032;-84
2022/06/26 20:33:34;;;;;;;2.00;1.90;;;22.80;73.80;;;;;;5078149;28;20024;-85
2022/06/26 20:36:00;;;;;;;1.80;1.70;;;22.80;73.40;;;;;;5075389;28;20036;-85
2022/06/26 20:38:26;;;;;;;1.90;1.80;;;22.80;72.60;;;;;;5050524;28;20101;-83
2022/06/26 20:40:52;;;;;;;1.70;1.50;;;22.90;72.70;;;;;;5079362;28;20029;-86
2022/06/26 20:43:18;;;;;;;1.75;1.65;;;22.90;72.90;;;;;;5043776;28;20043;-84
2022/06/26 20:45:44;;;;;;;3.63;1.52;;;22.90;73.40;;;;;;5067022;28;20062;-83
2022/06/26 20:48:11;;;;;;;1.50;1.40;;;22.90;74.40;;;;;;5066266;28;20297;-84
2022/06/26 20:50:37;;;;;;;1.60;1.50;;;22.90;74.10;;;;;;5070694;28;20029;-84
2022/06/26 20:53:03;;;;;;;2.95;1.73;;;22.80;74.00;;;;;;5056184;28;20029;-85
2022/06/26 20:55:29;;;;;;;1.90;1.80;;;22.80;74.20;;;;;;5090285;28;20025;-83
2022/06/26 20:57:55;;;;;;;2.20;2.10;;;22.70;74.50;;;;;;5067444;28;20032;-86
2022/06/26 21:00:21;;;;;;;1.95;1.85;;;22.60;74.70;;;;;;5069537;28;20028;-85
2022/06/26 21:02:47;;;;;;;2.10;2.00;;;22.50;75.20;;;;;;5083471;28;20032;-85
2022/06/26 21:05:12;;;;;;;3.08;2.38;;;22.50;75.30;;;;;;5053100;28;20554;-85
2022/06/26 21:07:38;;;;;;;2.00;1.90;;;22.50;75.70;;;;;;5068842;28;20116;-84
2022/06/26 21:10:06;;;;;;;1.90;1.80;;;22.40;75.50;;;;;;5035481;28;20495;-84
2022/06/26 21:12:32;;;;;;;2.42;2.20;;;22.40;76.70;;;;;;5059043;28;20021;-83
2022/06/26 21:14:57;;;;;;;1.92;1.83;;;22.40;76.90;;;;;;5040352;28;20052;-85
2022/06/26 21:17:23;;;;;;;3.58;2.20;;;22.40;76.90;;;;;;5072865;28;20240;-85
2022/06/26 21:19:49;;;;;;;1.90;1.80;;;22.30;76.70;;;;;;5073155;28;20051;-85
2022/06/26 21:22:15;;;;;;;2.03;1.92;;;22.30;77.50;;;;;;5056057;28;20036;-86
2022/06/26 21:24:41;;;;;;;2.05;1.95;;;22.20;76.80;;;;;;5048852;28;20433;-84
2022/06/26 21:27:07;;;;;;;1.90;1.80;;;22.20;77.60;;;;;;5043251;28;20104;-85
2022/06/26 21:29:32;;;;;;;2.40;1.98;;;22.20;77.30;;;;;;5060552;28;20032;-86
2022/06/26 21:31:59;;;;;;;2.05;1.95;;;22.10;77.70;;;;;;5071217;28;20114;-84
2022/06/26 21:34:25;;;;;;;1.95;1.85;;;22.10;78.60;;;;;;5068259;28;20028;-84
2022/06/26 21:36:51;;;;;;;2.10;2.00;;;22.00;79.20;;;;;;5076529;28;20498;-84
2022/06/26 21:39:17;;;;;;;1.98;1.80;;;22.00;78.50;;;;;;5049695;28;20072;-83
2022/06/26 21:41:43;;;;;;;2.28;2.08;;;22.00;78.70;;;;;;5043098;28;20124;-86
2022/06/26 21:44:09;;;;;;;2.13;2.03;;;22.00;78.80;;;;;;5068146;28;20044;-85
2022/06/26 21:46:36;;;;;;;2.85;2.65;;;21.90;78.70;;;;;;5059080;28;20029;-84
2022/06/26 21:49:03;;;;;;;2.05;1.95;;;21.90;78.50;;;;;;5063505;28;20121;-82
2022/06/26 21:51:29;;;;;;;1.85;1.75;;;21.90;78.50;;;;;;5062595;28;20036;-84
2022/06/26 21:53:56;;;;;;;2.35;2.00;;;21.90;78.30;;;;;;5076258;28;20031;-83
2022/06/26 21:56:23;;;;;;;2.35;2.15;;;21.90;78.30;;;;;;5048066;28;20070;-84
2022/06/26 21:58:49;;;;;;;2.00;1.90;;;21.90;79.10;;;;;;5067801;28;20040;-83
2022/06/26 22:01:15;;;;;;;2.50;2.40;;;21.90;78.90;;;;;;5035428;28;20036;-83
2022/06/26 22:03:41;;;;;;;2.67;1.80;;;21.90;78.80;;;;;;5073727;22;20046;-76
2022/06/26 22:06:08;;;;;;;1.88;1.75;;;21.90;79.40;;;;;;5074401;28;20405;-79
2022/06/26 22:08:34;;;;;;;1.80;1.70;;;21.90;79.90;;;;;;5082334;28;20289;-81
2022/06/26 22:11:01;;;;;;;2.10;2.00;;;21.80;80.40;;;;;;5080401;28;20033;-77
2022/06/26 22:13:27;;;;;;;2.03;1.92;;;21.70;81.50;;;;;;5077447;28;20073;-80
2022/06/26 22:15:54;;;;;;;2.15;1.95;;;21.60;81.80;;;;;;5081017;28;20035;-80
2022/06/26 22:18:21;;;;;;;2.10;2.00;;;21.50;82.00;;;;;;5039304;28;20035;-76
2022/06/26 22:20:47;;;;;;;1.88;1.77;;;21.50;82.20;;;;;;5023633;28;20094;-77
2022/06/26 22:23:13;;;;;;;2.55;2.35;;;21.40;82.40;;;;;;5072854;28;20474;-79
2022/06/26 22:28:24;;;;;;;2.05;1.95;;;21.30;82.80;;;;;;5053074;28;20287;-78
2022/06/26 22:30:50;;;;;;;2.25;2.15;;;21.30;82.70;;;;;;5057788;28;20032;-79
2022/06/26 22:33:16;;;;;;;2.20;2.10;;;21.40;83.00;;;;;;5039111;28;20130;-78
2022/06/26 22:35:42;;;;;;;2.40;2.30;;;21.50;82.80;;;;;;5075665;28;20044;-78
2022/06/26 22:38:08;;;;;;;2.20;2.10;;;21.60;82.70;;;;;;5047013;28;20059;-78
2022/06/26 22:40:34;;;;;;;2.60;2.40;;;21.60;83.50;;;;;;5054074;28;20027;-79
2022/06/26 22:43:00;;;;;;;2.85;2.65;;;21.70;82.40;;;;;;5055171;28;20506;-79
2022/06/26 22:45:26;;;;;;;2.78;2.47;;;21.70;82.60;;;;;;5048696;28;20052;-79
2022/06/26 22:47:51;;;;;;;2.60;2.40;;;21.70;83.00;;;;;;5022329;28;20063;-78
2022/06/26 22:50:17;;;;;;;2.35;2.25;;;21.70;82.80;;;;;;5041249;28;20086;-78
2022/06/26 22:52:43;;;;;;;2.50;2.30;;;21.70;83.20;;;;;;5070616;28;20056;-79
2022/06/26 22:55:11;;;;;;;2.65;2.45;;;21.60;83.60;;;;;;5061392;28;20029;-78